KHNB/HNB METAR and TAF weather

Enter ICAO airport designator
Station Type Date Time Source
KHNB METAR 2021/09/25 01:56 UTC NOAA

KHNB 250156Z AUTO 16006KT 10SM CLR 18/12 A3005 RMK AO2 SLP175 T01780117


Station Type Date Time Source
KHNB Decoded METAR 2021/09/25 01:56 UTC NOAA

Huntingburg, IN, United States (KHNB) 38-15N 086-57W
Sep 24, 2021 - 09:56 PM EDT / 2021.09.25 0156 UTC
Wind: from the SSE (160 degrees) at 7 MPH (6 KT):0
Visibility: 10 mile(s):0
Sky conditions: clear
Temperature: 64.0 F (17.8 C)
Dew Point: 53.1 F (11.7 C)
Relative Humidity: 67%
Pressure (altimeter): 30.05 in. Hg (1017 hPa)
ob: KHNB 250156Z AUTO 16006KT 10SM CLR 18/12 A3005 RMK AO2 SLP175 T01780117
cycle: 2

Station Type Date Time Source
KHNB TAF 2021/09/24 18:48 UTC NOAA

TAF KHNB 241747Z 2418/2518 21009KT P6SM SKC
FM250000 18006KT P6SM BKN250
FM251100 22005KT P6SM -SHRA SCT015 BKN035
FM251300 24006KT P6SM VCSH BKN015
FM251630 30007KT P6SM SCT040

Example: see airport list